Peterborough, United Kingdom
Current Conditions -  °F | °C
As of 7:50 AM on Thursday 29 Jan 2015 (Local Time) from EGXT Reporting Station
Few Clouds Few Clouds  
Wind Chill: 25°   Ceiling: Unl
Heat Index: 36°   Visibility: 6mi
Dew Point: 30°   Wind: 20mph
Humidity: 81%   Direction: 240°WSW
Pressure: 29.09"   Gusts: NA
Location:  52.57°N, 0.24°W
Report Text: EGXT 290750Z 24017KT 9999 // FEW100 02/M01 Q0985 BLU
Loading
Personal Weather Stations






























Interactive Weather Map New forecast layout! Learn more

10-Day Weather Forecast

Advertisements
Track Severe Weather on mobile